Time;durP1;ratioP1;P1;durP2;ratioP2;P2;SDS_P1;SDS_P2;PMS_P1;PMS_P2;Temp;Humidity;BMP_temperature;BMP_pressure;BME280_temperature;BME280_humidity;BME280_pressure;Samples;Min_cycle;Max_cycle;Signal;HPM_P1;HPM_P2
2024/01/20 00:01:08;;;;;;;6.03;2.72;;;;;;;;;;4832474;29;20058;-77
2024/01/20 00:03:38;;;;;;;3.35;2.50;;;;;;;;;;4832723;29;20053;-78
2024/01/20 00:06:10;;;;;;;3.25;2.40;;;;;;;;;;4833011;29;20081;-77
2024/01/20 00:08:41;;;;;;;4.32;2.40;;;;;;;;;;4832264;29;20132;-77
2024/01/20 00:11:13;;;;;;;6.05;2.65;;;;;;;;;;4832018;29;20062;-78
2024/01/20 00:13:44;;;;;;;5.10;2.45;;;;;;;;;;4831871;29;20596;-77
2024/01/20 00:16:14;;;;;;;3.92;2.53;;;;;;;;;;4831800;29;20058;-78
2024/01/20 00:18:46;;;;;;;6.57;2.40;;;;;;;;;;4828750;29;20490;-78
2024/01/20 00:21:17;;;;;;;3.75;2.15;;;;;;;;;;4831798;29;20057;-79
2024/01/20 00:23:49;;;;;;;5.22;2.30;;;;;;;;;;4829795;29;20046;-78
2024/01/20 00:26:21;;;;;;;3.45;2.15;;;;;;;;;;4831460;29;20073;-77
2024/01/20 00:28:51;;;;;;;4.55;2.10;;;;;;;;;;4831627;29;20057;-77
2024/01/20 00:31:22;;;;;;;5.82;1.98;;;;;;;;;;4831523;29;20056;-77
2024/01/20 00:33:54;;;;;;;4.65;2.00;;;;;;;;;;4815502;29;20046;-78
2024/01/20 00:36:25;;;;;;;3.53;1.85;;;;;;;;;;4831205;29;20578;-77
2024/01/20 00:38:55;;;;;;;2.83;1.77;;;;;;;;;;4830006;29;20053;-77
2024/01/20 00:41:26;;;;;;;6.03;2.05;;;;;;;;;;4831561;29;20418;-77
2024/01/20 00:43:58;;;;;;;7.32;2.38;;;;;;;;;;4824748;29;20069;-76
2024/01/20 00:46:29;;;;;;;3.33;2.05;;;;;;;;;;4813294;29;20526;-77
2024/01/20 00:48:59;;;;;;;8.20;2.58;;;;;;;;;;4813393;29;20438;-77
2024/01/20 00:51:31;;;;;;;3.75;2.10;;;;;;;;;;4813432;29;20823;-78
2024/01/20 00:54:01;;;;;;;2.72;2.10;;;;;;;;;;4814074;29;20054;-77
2024/01/20 00:56:32;;;;;;;5.75;2.42;;;;;;;;;;4814189;29;20059;-77
2024/01/20 00:59:03;;;;;;;3.65;2.53;;;;;;;;;;4813622;29;20511;-78
2024/01/20 01:01:34;;;;;;;6.63;2.50;;;;;;;;;;4812607;29;20066;-77
2024/01/20 01:04:11;;;;;;;5.55;2.72;;;;;;;;;;4812858;29;20061;-75
2024/01/20 01:06:44;;;;;;;2.97;2.20;;;;;;;;;;4812709;29;20060;-76
2024/01/20 01:09:15;;;;;;;4.68;2.35;;;;;;;;;;4813127;29;20525;-78
2024/01/20 01:11:49;;;;;;;6.25;2.40;;;;;;;;;;4812482;29;20065;-76
2024/01/20 01:14:20;;;;;;;7.75;2.72;;;;;;;;;;4812430;29;20058;-78
2024/01/20 01:16:51;;;;;;;4.60;2.38;;;;;;;;;;4813336;29;20446;-77
2024/01/20 01:19:22;;;;;;;3.55;2.38;;;;;;;;;;4813723;29;20422;-81
2024/01/20 01:21:54;;;;;;;5.57;2.20;;;;;;;;;;4813314;29;20511;-79
2024/01/20 01:24:25;;;;;;;4.30;2.20;;;;;;;;;;4813185;29;20059;-75
2024/01/20 01:26:56;;;;;;;4.05;2.33;;;;;;;;;;4813380;29;20085;-77
2024/01/20 01:29:26;;;;;;;2.88;2.30;;;;;;;;;;4813421;29;20407;-78
2024/01/20 01:31:59;;;;;;;5.65;2.45;;;;;;;;;;4820729;29;20057;-77
2024/01/20 01:34:30;;;;;;;7.05;3.00;;;;;;;;;;4835547;29;20065;-77
2024/01/20 01:37:00;;;;;;;6.97;2.60;;;;;;;;;;4834620;29;20053;-75
2024/01/20 01:39:31;;;;;;;7.28;2.88;;;;;;;;;;4842616;29;20065;-76
2024/01/20 01:42:03;;;;;;;4.35;2.42;;;;;;;;;;4816149;29;20051;-77
2024/01/20 01:44:35;;;;;;;8.32;2.85;;;;;;;;;;4831166;29;20054;-77
2024/01/20 01:47:05;;;;;;;5.82;2.60;;;;;;;;;;4833788;29;20057;-81
2024/01/20 01:49:36;;;;;;;8.07;2.70;;;;;;;;;;4833945;29;20045;-77
2024/01/20 01:52:17;;;;;;;3.80;2.45;;;;;;;;;;4832538;29;20053;-78
2024/01/20 01:54:48;;;;;;;4.72;2.85;;;;;;;;;;4833719;29;20057;-77
2024/01/20 01:57:19;;;;;;;5.78;2.80;;;;;;;;;;4834016;29;20521;-76
2024/01/20 01:59:50;;;;;;;4.88;2.60;;;;;;;;;;4833474;29;20797;-76
2024/01/20 02:02:26;;;;;;;7.32;3.17;;;;;;;;;;4835106;29;20918;-77
2024/01/20 02:04:58;;;;;;;7.85;3.47;;;;;;;;;;4834777;29;20054;-76
2024/01/20 02:07:30;;;;;;;4.50;2.65;;;;;;;;;;4834675;29;20061;-75
2024/01/20 02:10:08;;;;;;;4.97;2.75;;;;;;;;;;4834437;29;20075;-76
2024/01/20 02:12:40;;;;;;;4.70;2.75;;;;;;;;;;4834623;29;20062;-75
2024/01/20 02:15:13;;;;;;;7.97;2.88;;;;;;;;;;4835118;29;20053;-76
2024/01/20 02:17:55;;;;;;;5.00;3.00;;;;;;;;;;4833753;29;20061;-76
2024/01/20 02:20:26;;;;;;;5.05;2.92;;;;;;;;;;4834702;29;20069;-76
2024/01/20 02:22:57;;;;;;;3.50;2.50;;;;;;;;;;4834047;29;20081;-76
2024/01/20 02:25:28;;;;;;;5.20;2.70;;;;;;;;;;4832468;29;20513;-75
2024/01/20 02:28:00;;;;;;;11.48;2.55;;;;;;;;;;4833411;29;20061;-74
2024/01/20 02:30:30;;;;;;;3.83;2.75;;;;;;;;;;4832520;29;20077;-76
2024/01/20 02:33:01;;;;;;;3.40;2.55;;;;;;;;;;4832889;29;20414;-76
2024/01/20 02:35:36;;;;;;;10.38;3.08;;;;;;;;;;4833848;29;20060;-76
2024/01/20 02:38:06;;;;;;;6.72;3.00;;;;;;;;;;4832940;29;20058;-76
2024/01/20 02:40:36;;;;;;;5.72;3.15;;;;;;;;;;4833628;29;20054;-76
2024/01/20 02:43:10;;;;;;;5.05;2.95;;;;;;;;;;4833130;29;20422;-76
2024/01/20 02:45:41;;;;;;;6.18;3.20;;;;;;;;;;4834066;29;20061;-76
2024/01/20 02:48:11;;;;;;;6.03;3.00;;;;;;;;;;4833259;29;20685;-76
2024/01/20 02:50:58;;;;;;;9.90;3.55;;;;;;;;;;4834792;29;20414;-76
2024/01/20 02:53:29;;;;;;;5.35;3.55;;;;;;;;;;4834354;29;20045;-75
2024/01/20 02:56:00;;;;;;;7.65;3.17;;;;;;;;;;4833285;29;20053;-77
2024/01/20 02:58:31;;;;;;;4.95;3.40;;;;;;;;;;4834398;29;20058;-76
2024/01/20 03:01:02;;;;;;;6.75;3.25;;;;;;;;;;4833600;29;20058;-78
2024/01/20 03:03:33;;;;;;;3.78;2.80;;;;;;;;;;4833805;29;20060;-75
2024/01/20 03:06:04;;;;;;;5.88;2.63;;;;;;;;;;4817222;29;20057;-76
2024/01/20 03:08:35;;;;;;;6.35;2.80;;;;;;;;;;4833594;29;20049;-76
2024/01/20 03:11:05;;;;;;;4.57;2.75;;;;;;;;;;4833850;29;20050;-78
2024/01/20 03:13:36;;;;;;;6.32;2.75;;;;;;;;;;4832232;29;20518;-76
2024/01/20 03:16:08;;;;;;;5.20;2.72;;;;;;;;;;4833458;29;20581;-76
2024/01/20 03:18:41;;;;;;;4.93;3.30;;;;;;;;;;4833518;29;20499;-76
2024/01/20 03:21:12;;;;;;;6.43;2.90;;;;;;;;;;4817198;29;20080;-76
2024/01/20 03:23:42;;;;;;;4.75;2.90;;;;;;;;;;4816821;29;20054;-77
2024/01/20 03:26:14;;;;;;;5.68;3.00;;;;;;;;;;4833392;29;20521;-75
2024/01/20 03:28:45;;;;;;;3.97;2.80;;;;;;;;;;4833461;29;20053;-75
2024/01/20 03:31:16;;;;;;;6.80;2.45;;;;;;;;;;4833074;29;20419;-75
2024/01/20 03:33:48;;;;;;;8.77;2.83;;;;;;;;;;4833879;29;20066;-75
2024/01/20 03:36:21;;;;;;;9.13;3.20;;;;;;;;;;4833949;29;20612;-76
2024/01/20 03:38:52;;;;;;;4.15;2.50;;;;;;;;;;4832975;29;20527;-77
2024/01/20 03:41:23;;;;;;;3.85;2.60;;;;;;;;;;4816860;29;20403;-75
2024/01/20 03:43:54;;;;;;;4.28;2.60;;;;;;;;;;4833152;29;20062;-75
2024/01/20 03:46:25;;;;;;;4.57;2.50;;;;;;;;;;4833209;29;20058;-76
2024/01/20 03:49:02;;;;;;;4.80;2.38;;;;;;;;;;4832910;29;20058;-75
2024/01/20 03:51:41;;;;;;;3.83;2.22;;;;;;;;;;4832617;29;20413;-76
2024/01/20 03:54:14;;;;;;;5.18;2.20;;;;;;;;;;4832812;29;20045;-75
2024/01/20 03:56:45;;;;;;;3.30;2.20;;;;;;;;;;4832909;29;20418;-76
2024/01/20 03:59:15;;;;;;;5.35;2.67;;;;;;;;;;4817250;29;20440;-76
2024/01/20 04:01:46;;;;;;;3.42;2.20;;;;;;;;;;4833124;29;20449;-76
2024/01/20 04:04:17;;;;;;;7.18;2.33;;;;;;;;;;4832532;29;20049;-75
2024/01/20 04:06:48;;;;;;;4.28;2.40;;;;;;;;;;4833256;29;20057;-75
2024/01/20 04:09:19;;;;;;;5.07;2.50;;;;;;;;;;4832759;29;20046;-75
2024/01/20 04:11:50;;;;;;;3.88;2.40;;;;;;;;;;4832724;29;20058;-74
2024/01/20 04:14:22;;;;;;;3.28;2.17;;;;;;;;;;4832489;29;20569;-75
2024/01/20 04:16:56;;;;;;;3.35;2.70;;;;;;;;;;4833554;29;20077;-76
2024/01/20 04:19:27;;;;;;;5.22;2.88;;;;;;;;;;4831815;29;20050;-76
2024/01/20 04:21:57;;;;;;;3.17;2.17;;;;;;;;;;4832436;29;20529;-75
2024/01/20 04:24:28;;;;;;;5.25;2.38;;;;;;;;;;4832498;29;20053;-76
2024/01/20 04:26:59;;;;;;;3.53;2.53;;;;;;;;;;4832387;29;20502;-76
2024/01/20 04:29:32;;;;;;;9.15;2.88;;;;;;;;;;4832127;29;20510;-76
2024/01/20 04:32:04;;;;;;;9.45;2.50;;;;;;;;;;4816026;29;20057;-77
2024/01/20 04:34:35;;;;;;;4.43;2.40;;;;;;;;;;4832128;29;20088;-75
2024/01/20 04:37:06;;;;;;;9.95;2.47;;;;;;;;;;4831686;29;20502;-75
2024/01/20 04:39:37;;;;;;;5.72;2.13;;;;;;;;;;4831818;29;20058;-75
2024/01/20 04:42:10;;;;;;;5.47;2.15;;;;;;;;;;4831795;29;20049;-76
2024/01/20 04:44:40;;;;;;;3.97;2.15;;;;;;;;;;4832519;29;20062;-76
2024/01/20 04:47:13;;;;;;;7.75;2.33;;;;;;;;;;4832397;29;20054;-75
2024/01/20 04:49:43;;;;;;;5.68;2.22;;;;;;;;;;4832877;29;20052;-76
2024/01/20 04:52:14;;;;;;;4.10;2.20;;;;;;;;;;4832547;29;20046;-75
2024/01/20 04:54:45;;;;;;;4.68;2.28;;;;;;;;;;4831012;29;20057;-76
2024/01/20 04:57:16;;;;;;;5.47;2.00;;;;;;;;;;4831466;29;20053;-76
2024/01/20 04:59:47;;;;;;;4.25;2.42;;;;;;;;;;4815101;29;20544;-76
2024/01/20 05:02:18;;;;;;;3.60;2.42;;;;;;;;;;4831714;29;20053;-75
2024/01/20 05:04:49;;;;;;;4.47;2.80;;;;;;;;;;4831280;29;20054;-76
2024/01/20 05:07:20;;;;;;;6.00;2.97;;;;;;;;;;4830262;29;21029;-75
2024/01/20 05:09:51;;;;;;;5.80;2.65;;;;;;;;;;4831445;29;20046;-75
2024/01/20 05:12:28;;;;;;;5.18;2.97;;;;;;;;;;4831860;29;20061;-76
2024/01/20 05:14:59;;;;;;;6.28;2.88;;;;;;;;;;4831698;29;20042;-77
2024/01/20 05:17:30;;;;;;;6.93;2.58;;;;;;;;;;4832377;29;20046;-75
2024/01/20 05:20:01;;;;;;;3.50;2.47;;;;;;;;;;4831843;29;20493;-76
2024/01/20 05:22:32;;;;;;;7.15;2.60;;;;;;;;;;4815920;29;20433;-75
2024/01/20 05:25:04;;;;;;;5.20;2.72;;;;;;;;;;4831816;29;20065;-80
2024/01/20 05:27:35;;;;;;;6.35;2.70;;;;;;;;;;4832027;29;20077;-75
2024/01/20 05:30:06;;;;;;;5.03;3.00;;;;;;;;;;4832392;29;20510;-76
2024/01/20 05:32:41;;;;;;;4.97;2.53;;;;;;;;;;4815887;29;20054;-76
2024/01/20 05:35:12;;;;;;;8.43;2.72;;;;;;;;;;4831729;29;20046;-76
2024/01/20 05:37:42;;;;;;;6.72;2.50;;;;;;;;;;4831467;29;20058;-76
2024/01/20 05:40:13;;;;;;;4.90;2.65;;;;;;;;;;4831739;29;20042;-76
2024/01/20 05:42:44;;;;;;;3.95;2.85;;;;;;;;;;4829899;29;20049;-77
2024/01/20 05:45:14;;;;;;;6.85;3.25;;;;;;;;;;4831811;29;20058;-75
2024/01/20 05:47:45;;;;;;;7.88;3.20;;;;;;;;;;4831498;29;20062;-76
2024/01/20 05:50:37;;;;;;;6.35;2.97;;;;;;;;;;4831490;29;20049;-76
2024/01/20 05:53:07;;;;;;;7.50;3.72;;;;;;;;;;4831300;29;20054;-76
2024/01/20 05:55:38;;;;;;;7.18;3.78;;;;;;;;;;4831614;29;20069;-79
2024/01/20 05:58:09;;;;;;;6.45;3.47;;;;;;;;;;4815209;29;20086;-76
2024/01/20 06:00:40;;;;;;;7.43;3.50;;;;;;;;;;4815295;29;20065;-76
2024/01/20 06:03:11;;;;;;;8.98;3.25;;;;;;;;;;4830917;29;20058;-76
2024/01/20 06:05:41;;;;;;;5.75;3.30;;;;;;;;;;4831333;29;20516;-76
2024/01/20 06:08:12;;;;;;;6.95;3.42;;;;;;;;;;4831504;29;20046;-76
2024/01/20 06:10:42;;;;;;;9.35;4.07;;;;;;;;;;4831877;29;20046;-76
2024/01/20 06:13:13;;;;;;;7.53;3.50;;;;;;;;;;4838781;29;20052;-76
2024/01/20 06:15:43;;;;;;;7.25;3.95;;;;;;;;;;4849618;29;20552;-76
2024/01/20 06:18:16;;;;;;;7.28;4.07;;;;;;;;;;4851423;29;20057;-76
2024/01/20 06:20:47;;;;;;;9.20;3.90;;;;;;;;;;4852886;29;20057;-77
2024/01/20 06:23:19;;;;;;;12.30;5.65;;;;;;;;;;4852680;29;20068;-77
2024/01/20 06:25:49;;;;;;;9.43;5.32;;;;;;;;;;4835993;29;20073;-76
2024/01/20 06:28:21;;;;;;;10.90;5.85;;;;;;;;;;4853317;29;20445;-76
2024/01/20 06:30:53;;;;;;;9.40;5.38;;;;;;;;;;4852273;29;20506;-76
2024/01/20 06:33:23;;;;;;;12.68;5.65;;;;;;;;;;4852947;29;20061;-76
2024/01/20 06:35:54;;;;;;;17.00;6.03;;;;;;;;;;4851688;29;20524;-75
2024/01/20 06:38:25;;;;;;;9.18;5.47;;;;;;;;;;4852305;29;20057;-76
2024/01/20 06:40:56;;;;;;;9.93;5.28;;;;;;;;;;4852940;29;20049;-76
2024/01/20 06:43:26;;;;;;;12.52;5.20;;;;;;;;;;4852980;29;20394;-75
2024/01/20 06:45:57;;;;;;;11.60;5.82;;;;;;;;;;4852666;29;20054;-76
2024/01/20 06:48:32;;;;;;;9.93;4.82;;;;;;;;;;4852812;29;20049;-76
2024/01/20 06:51:06;;;;;;;9.10;5.10;;;;;;;;;;4835278;29;20068;-76
2024/01/20 06:53:36;;;;;;;9.15;5.25;;;;;;;;;;4851875;29;20100;-75
2024/01/20 06:56:06;;;;;;;11.30;4.90;;;;;;;;;;4852304;29;20045;-76
2024/01/20 06:58:37;;;;;;;8.50;5.30;;;;;;;;;;4852348;29;20080;-76
2024/01/20 07:01:08;;;;;;;9.60;4.90;;;;;;;;;;4852366;29;20049;-75
2024/01/20 07:03:39;;;;;;;8.07;4.50;;;;;;;;;;4852114;29;20518;-75
2024/01/20 07:06:09;;;;;;;10.57;5.28;;;;;;;;;;4835181;29;20132;-76
2024/01/20 07:08:42;;;;;;;9.45;5.15;;;;;;;;;;4852555;29;20053;-76
2024/01/20 07:11:13;;;;;;;8.40;4.82;;;;;;;;;;4852282;29;20049;-77
2024/01/20 07:13:44;;;;;;;9.48;4.60;;;;;;;;;;4852446;29;20062;-76
2024/01/20 07:16:16;;;;;;;7.55;4.13;;;;;;;;;;4852081;29;20058;-77
2024/01/20 07:18:47;;;;;;;7.03;4.13;;;;;;;;;;4851825;29;20065;-76
2024/01/20 07:21:21;;;;;;;6.95;3.90;;;;;;;;;;4851735;29;20053;-76
2024/01/20 07:23:52;;;;;;;5.28;3.97;;;;;;;;;;4852161;29;20074;-77
2024/01/20 07:26:22;;;;;;;6.35;3.38;;;;;;;;;;4851703;29;20057;-77
2024/01/20 07:28:53;;;;;;;6.15;3.28;;;;;;;;;;4851141;29;20061;-77
2024/01/20 07:31:26;;;;;;;6.53;3.67;;;;;;;;;;4835157;29;20539;-76
2024/01/20 07:33:56;;;;;;;8.13;3.70;;;;;;;;;;4851582;29;20062;-76
2024/01/20 07:36:27;;;;;;;6.25;3.67;;;;;;;;;;4851790;29;20425;-78
2024/01/20 07:38:57;;;;;;;9.15;3.55;;;;;;;;;;4851309;29;20057;-78
2024/01/20 07:41:28;;;;;;;7.63;3.80;;;;;;;;;;4851609;29;20513;-76
2024/01/20 07:43:59;;;;;;;6.78;3.85;;;;;;;;;;4851122;29;20425;-77
2024/01/20 07:46:29;;;;;;;7.25;3.67;;;;;;;;;;4851026;29;20041;-78
2024/01/20 07:49:00;;;;;;;8.20;3.55;;;;;;;;;;4851170;29;20134;-77
2024/01/20 07:51:31;;;;;;;11.18;3.90;;;;;;;;;;4851358;29;20061;-77
2024/01/20 07:54:02;;;;;;;8.93;4.40;;;;;;;;;;4851135;29;20050;-77
2024/01/20 07:56:33;;;;;;;5.88;3.75;;;;;;;;;;4851006;29;20423;-78
2024/01/20 07:59:03;;;;;;;9.23;4.40;;;;;;;;;;4850894;29;20528;-76
2024/01/20 08:01:33;;;;;;;5.88;3.78;;;;;;;;;;4850901;29;20527;-76
2024/01/20 08:04:05;;;;;;;5.35;3.80;;;;;;;;;;4850941;29;20045;-76
2024/01/20 08:06:37;;;;;;;9.07;3.85;;;;;;;;;;4851402;29;20405;-76
2024/01/20 08:09:10;;;;;;;7.32;3.85;;;;;;;;;;4850641;29;20128;-75
2024/01/20 08:11:40;;;;;;;5.65;3.67;;;;;;;;;;4850272;29;20062;-76
2024/01/20 08:14:12;;;;;;;6.75;3.83;;;;;;;;;;4850747;29;20057;-76
2024/01/20 08:16:42;;;;;;;7.88;3.83;;;;;;;;;;4849595;29;20548;-77
2024/01/20 08:19:12;;;;;;;10.00;3.92;;;;;;;;;;4850464;29;20061;-75
2024/01/20 08:21:44;;;;;;;5.90;4.15;;;;;;;;;;4850570;29;20421;-77
2024/01/20 08:24:14;;;;;;;11.35;4.10;;;;;;;;;;4850771;29;20128;-76
2024/01/20 08:26:45;;;;;;;6.05;4.05;;;;;;;;;;4851088;29;20037;-76
2024/01/20 08:29:17;;;;;;;8.65;4.40;;;;;;;;;;4850949;29;20053;-77
2024/01/20 08:31:47;;;;;;;8.85;4.22;;;;;;;;;;4850148;29;20081;-77
2024/01/20 08:34:18;;;;;;;6.28;3.70;;;;;;;;;;4833757;29;20072;-78
2024/01/20 08:36:49;;;;;;;6.20;4.05;;;;;;;;;;4849676;29;20509;-78
2024/01/20 08:39:21;;;;;;;8.50;4.60;;;;;;;;;;4850076;29;20057;-77
2024/01/20 08:41:52;;;;;;;9.57;4.20;;;;;;;;;;4851146;29;20405;-77
2024/01/20 08:44:22;;;;;;;7.72;4.50;;;;;;;;;;4850548;29;20058;-77
2024/01/20 08:46:54;;;;;;;10.85;3.95;;;;;;;;;;4850203;29;20049;-77
2024/01/20 08:49:25;;;;;;;8.18;4.20;;;;;;;;;;4849832;29;20057;-77
2024/01/20 08:51:55;;;;;;;8.57;4.28;;;;;;;;;;4850694;29;20490;-78
2024/01/20 08:54:27;;;;;;;8.13;4.25;;;;;;;;;;4850059;29;20501;-76
2024/01/20 08:56:57;;;;;;;14.55;5.35;;;;;;;;;;4850476;29;20053;-77
2024/01/20 08:59:28;;;;;;;9.20;4.78;;;;;;;;;;4849852;29;20045;-77
2024/01/20 09:01:57;;;;;;;9.68;4.60;;;;;;;;;;4848339;29;20057;-77
2024/01/20 09:04:29;;;;;;;8.32;4.80;;;;;;;;;;4849385;29;20509;-75
2024/01/20 09:06:59;;;;;;;10.55;4.75;;;;;;;;;;4849668;29;20053;-77
2024/01/20 09:09:30;;;;;;;8.98;4.53;;;;;;;;;;4850676;29;20053;-77
2024/01/20 09:12:00;;;;;;;8.00;4.75;;;;;;;;;;4849893;29;20056;-76
2024/01/20 09:14:31;;;;;;;13.10;5.50;;;;;;;;;;4850767;29;20064;-77
2024/01/20 09:17:03;;;;;;;10.32;6.18;;;;;;;;;;4849564;29;20062;-77
2024/01/20 09:19:33;;;;;;;10.88;5.95;;;;;;;;;;4850767;29;20084;-76
2024/01/20 09:22:04;;;;;;;11.40;6.50;;;;;;;;;;4850515;29;20072;-77
2024/01/20 09:24:34;;;;;;;12.32;6.50;;;;;;;;;;4848417;29;20053;-77
2024/01/20 09:27:05;;;;;;;14.07;7.03;;;;;;;;;;4849948;29;20119;-78
2024/01/20 09:29:37;;;;;;;4.45;2.92;;;;;;;;;;4850088;29;20551;-78
2024/01/20 09:32:09;;;;;;;5.78;3.20;;;;;;;;;;4850068;29;20045;-79
2024/01/20 09:34:39;;;;;;;4.28;2.28;;;;;;;;;;4850169;29;20434;-77
2024/01/20 09:37:10;;;;;;;4.45;2.00;;;;;;;;;;4849915;29;20057;-78
2024/01/20 09:39:41;;;;;;;6.53;2.30;;;;;;;;;;4850161;29;20049;-76
2024/01/20 09:42:15;;;;;;;3.25;1.80;;;;;;;;;;4850184;29;20049;-77
2024/01/20 09:44:46;;;;;;;2.70;1.60;;;;;;;;;;4850831;29;20680;-77
2024/01/20 09:47:17;;;;;;;4.75;1.83;;;;;;;;;;4850015;29;20513;-77
2024/01/20 09:49:49;;;;;;;6.35;2.05;;;;;;;;;;4848261;29;20068;-78
2024/01/20 09:52:27;;;;;;;6.03;2.05;;;;;;;;;;4852009;29;20045;-78
2024/01/20 09:55:17;;;;;;;4.70;2.00;;;;;;;;;;4853598;29;20713;-79
2024/01/20 09:57:49;;;;;;;2.67;1.88;;;;;;;;;;4853588;29;20056;-77
2024/01/20 10:00:25;;;;;;;5.25;1.90;;;;;;;;;;4852649;29;20052;-79
2024/01/20 10:03:00;;;;;;;4.07;2.10;;;;;;;;;;4853221;29;20049;-78
2024/01/20 10:05:33;;;;;;;11.10;2.15;;;;;;;;;;4836699;29;20678;-82
2024/01/20 10:08:07;;;;;;;2.45;1.70;;;;;;;;;;4854854;29;20387;-80
2024/01/20 10:10:39;;;;;;;4.90;1.13;;;;;;;;;;4853889;29;20058;-82
2024/01/20 10:13:10;;;;;;;3.72;1.08;;;;;;;;;;4855454;29;20072;-78
2024/01/20 10:15:41;;;;;;;2.58;1.10;;;;;;;;;;4851969;29;20069;-78
2024/01/20 10:18:12;;;;;;;3.03;0.80;;;;;;;;;;4852999;29;20072;-78
2024/01/20 10:20:44;;;;;;;4.00;0.95;;;;;;;;;;4852586;29;20068;-80
2024/01/20 10:23:18;;;;;;;3.72;0.73;;;;;;;;;;4853085;29;20052;-78
2024/01/20 10:25:58;;;;;;;5.57;1.05;;;;;;;;;;4852469;29;20064;-79
2024/01/20 10:28:29;;;;;;;3.95;1.02;;;;;;;;;;4853136;29;20050;-78
2024/01/20 10:31:11;;;;;;;2.55;0.80;;;;;;;;;;4852817;29;20061;-77
2024/01/20 10:33:41;;;;;;;;;;;;;;;;;;4852957;29;20053;-76
2024/01/20 10:36:16;;;;;;;6.88;0.85;;;;;;;;;;4852776;29;20406;-76
2024/01/20 10:38:51;;;;;;;2.03;1.05;;;;;;;;;;4852703;29;20402;-76
2024/01/20 10:41:25;;;;;;;6.65;1.00;;;;;;;;;;4835343;29;20399;-75
2024/01/20 10:44:02;;;;;;;4.85;1.13;;;;;;;;;;4851536;29;20532;-76
2024/01/20 10:46:39;;;;;;;5.18;0.93;;;;;;;;;;4852758;29;20056;-75
2024/01/20 10:49:13;;;;;;;4.05;1.00;;;;;;;;;;4852189;29;20520;-76
2024/01/20 10:51:46;;;;;;;5.50;1.08;;;;;;;;;;4852135;29;20057;-75
2024/01/20 10:54:17;;;;;;;7.40;1.00;;;;;;;;;;4851848;29;20053;-75
2024/01/20 10:56:47;;;;;;;5.53;1.00;;;;;;;;;;4852353;29;20398;-76
2024/01/20 10:59:19;;;;;;;4.05;0.75;;;;;;;;;;4852697;29;20049;-76
2024/01/20 11:01:51;;;;;;;4.82;0.70;;;;;;;;;;4852153;29;20049;-76
2024/01/20 11:04:22;;;;;;;5.28;0.60;;;;;;;;;;4851867;29;20805;-75
2024/01/20 11:06:54;;;;;;;4.30;0.70;;;;;;;;;;4851968;29;20529;-76
2024/01/20 11:09:29;;;;;;;7.00;0.75;;;;;;;;;;4852093;29;20052;-76
2024/01/20 11:12:07;;;;;;;4.15;0.90;;;;;;;;;;4851211;29;20049;-77
2024/01/20 11:14:38;;;;;;;3.72;0.63;;;;;;;;;;4851759;29;20053;-78
2024/01/20 11:17:12;;;;;;;3.90;0.70;;;;;;;;;;4852140;29;20862;-77
2024/01/20 11:19:43;;;;;;;2.83;0.50;;;;;;;;;;4852344;29;21143;-76
2024/01/20 11:22:39;;;;;;;1.88;0.50;;;;;;;;;;4851910;29;20444;-78
2024/01/20 11:25:12;;;;;;;4.03;0.63;;;;;;;;;;4851753;29;20061;-77
2024/01/20 11:27:46;;;;;;;3.30;0.55;;;;;;;;;;4851462;29;20064;-76
2024/01/20 11:30:29;;;;;;;4.10;0.80;;;;;;;;;;4852125;29;20406;-76
2024/01/20 11:33:02;;;;;;;3.60;0.50;;;;;;;;;;4851937;29;20053;-75
2024/01/20 11:35:37;;;;;;;3.22;0.80;;;;;;;;;;4852422;29;20064;-76
2024/01/20 11:38:08;;;;;;;3.67;0.63;;;;;;;;;;4851857;29;20079;-77
2024/01/20 11:40:39;;;;;;;2.83;0.75;;;;;;;;;;4852376;29;20061;-76
2024/01/20 11:43:13;;;;;;;4.45;0.60;;;;;;;;;;4849540;29;20070;-76
2024/01/20 11:45:44;;;;;;;6.68;0.73;;;;;;;;;;4851347;29;20054;-77
2024/01/20 11:48:18;;;;;;;3.60;0.63;;;;;;;;;;4851423;29;20053;-76
2024/01/20 11:50:49;;;;;;;3.13;0.70;;;;;;;;;;4851587;29;20655;-77
2024/01/20 11:53:21;;;;;;;4.63;0.70;;;;;;;;;;4851110;29;20430;-76
2024/01/20 11:55:58;;;;;;;10.23;0.90;;;;;;;;;;4850586;29;20052;-81
2024/01/20 11:58:32;;;;;;;1.00;0.40;;;;;;;;;;4850671;29;20045;-77
2024/01/20 12:01:03;;;;;;;4.18;0.82;;;;;;;;;;4850897;29;20053;-77
2024/01/20 12:03:35;;;;;;;1.98;0.60;;;;;;;;;;4851315;29;20530;-76
2024/01/20 12:06:07;;;;;;;5.55;1.05;;;;;;;;;;4851467;29;20501;-82
2024/01/20 12:08:44;;;;;;;5.78;0.93;;;;;;;;;;4850272;29;20524;-81
2024/01/20 12:11:22;;;;;;;4.20;0.75;;;;;;;;;;4850792;29;20053;-77
2024/01/20 12:13:53;;;;;;;6.78;0.90;;;;;;;;;;4850685;29;20533;-77
2024/01/20 12:16:25;;;;;;;5.55;0.85;;;;;;;;;;4851050;29;20058;-78
2024/01/20 12:18:55;;;;;;;4.10;0.82;;;;;;;;;;4850510;29;20049;-78
2024/01/20 12:21:27;;;;;;;2.28;0.80;;;;;;;;;;4850396;29;20050;-78
2024/01/20 12:23:59;;;;;;;1.30;0.60;;;;;;;;;;4851207;29;20057;-77
2024/01/20 12:26:30;;;;;;;1.90;0.70;;;;;;;;;;4850701;29;20856;-78
2024/01/20 12:29:00;;;;;;;5.97;0.80;;;;;;;;;;4850238;29;20057;-76
2024/01/20 12:31:30;;;;;;;5.50;0.80;;;;;;;;;;4850423;29;20052;-76
2024/01/20 12:34:02;;;;;;;5.65;0.60;;;;;;;;;;4850712;29;20057;-77
2024/01/20 12:36:33;;;;;;;5.60;0.80;;;;;;;;;;4850241;29;20776;-76
2024/01/20 12:39:05;;;;;;;3.58;0.70;;;;;;;;;;4851193;29;20486;-79
2024/01/20 12:41:35;;;;;;;1.33;0.50;;;;;;;;;;4850488;29;20057;-78
2024/01/20 12:44:06;;;;;;;2.72;0.77;;;;;;;;;;4850754;29;20073;-77
2024/01/20 12:46:37;;;;;;;0.82;0.30;;;;;;;;;;4850924;29;20520;-77
2024/01/20 12:49:08;;;;;;;1.10;0.20;;;;;;;;;;4850278;29;20069;-77
2024/01/20 12:51:42;;;;;;;0.30;0.22;;;;;;;;;;4849953;29;20042;-76
2024/01/20 12:54:14;;;;;;;0.22;0.22;;;;;;;;;;4850922;29;20056;-75
2024/01/20 12:56:48;;;;;;;1.92;0.30;;;;;;;;;;4832293;29;20506;-77
2024/01/20 12:59:19;;;;;;;1.15;0.17;;;;;;;;;;4831924;29;20056;-80
2024/01/20 13:01:49;;;;;;;0.40;0.20;;;;;;;;;;4831778;29;20054;-76
2024/01/20 13:04:22;;;;;;;0.10;0.10;;;;;;;;;;4831719;29;20061;-78
2024/01/20 13:06:53;;;;;;;1.23;0.30;;;;;;;;;;4832921;29;20057;-78
2024/01/20 13:09:24;;;;;;;0.10;0.10;;;;;;;;;;4849645;29;20053;-77
2024/01/20 13:11:54;;;;;;;1.02;0.30;;;;;;;;;;4850168;29;20398;-75
2024/01/20 13:14:25;;;;;;;0.15;0.03;;;;;;;;;;4850232;29;20046;-77
2024/01/20 13:16:56;;;;;;;0.57;0.13;;;;;;;;;;4850242;29;20065;-78
2024/01/20 13:19:27;;;;;;;0.43;0.10;;;;;;;;;;4849754;29;20057;-75
2024/01/20 13:21:59;;;;;;;0.25;0.20;;;;;;;;;;4849818;29;20057;-75
2024/01/20 13:24:30;;;;;;;0.45;0.10;;;;;;;;;;4849055;29;20041;-78
2024/01/20 13:27:01;;;;;;;1.35;0.10;;;;;;;;;;4850880;29;20053;-78
2024/01/20 13:29:33;;;;;;;0.60;0.10;;;;;;;;;;4854501;29;20049;-76
2024/01/20 13:32:06;;;;;;;0.25;0.00;;;;;;;;;;4854026;29;20054;-75
2024/01/20 13:34:37;;;;;;;0.10;0.10;;;;;;;;;;4853213;29;20061;-75
2024/01/20 13:37:07;;;;;;;0.10;0.10;;;;;;;;;;4852674;29;20065;-75
2024/01/20 13:39:38;;;;;;;0.30;0.10;;;;;;;;;;4853303;29;20042;-75
2024/01/20 13:42:10;;;;;;;1.15;0.30;;;;;;;;;;4853709;29;20432;-75
2024/01/20 13:44:43;;;;;;;0.47;0.20;;;;;;;;;;4852331;29;20072;-77
2024/01/20 13:47:13;;;;;;;0.10;0.10;;;;;;;;;;4836982;29;20054;-75
2024/01/20 13:49:44;;;;;;;0.15;0.15;;;;;;;;;;4853150;29;20061;-74
2024/01/20 13:52:14;;;;;;;0.30;0.20;;;;;;;;;;4853126;29;20061;-75
2024/01/20 13:54:46;;;;;;;1.55;0.35;;;;;;;;;;4853306;29;20058;-76
2024/01/20 13:57:16;;;;;;;0.10;0.10;;;;;;;;;;4853375;29;20436;-77
2024/01/20 13:59:47;;;;;;;0.57;0.20;;;;;;;;;;4852545;29;20518;-76
2024/01/20 14:02:17;;;;;;;1.02;0.20;;;;;;;;;;4853537;29;20053;-74
2024/01/20 14:04:48;;;;;;;2.00;0.22;;;;;;;;;;4836890;29;20046;-76
2024/01/20 14:07:18;;;;;;;1.45;0.25;;;;;;;;;;4852305;29;20080;-75
2024/01/20 14:09:49;;;;;;;0.40;0.10;;;;;;;;;;4854080;29;20039;-76
2024/01/20 14:12:19;;;;;;;1.90;0.30;;;;;;;;;;4854252;29;20053;-81
2024/01/20 14:14:51;;;;;;;0.43;0.20;;;;;;;;;;4853445;29;20054;-78
2024/01/20 14:17:22;;;;;;;0.68;0.10;;;;;;;;;;4851566;29;20053;-81
2024/01/20 14:19:52;;;;;;;1.10;0.20;;;;;;;;;;4836612;29;20506;-77
2024/01/20 14:22:23;;;;;;;0.10;0.10;;;;;;;;;;4852655;29;20046;-82
2024/01/20 14:24:54;;;;;;;1.10;0.20;;;;;;;;;;4853105;29;20536;-79
2024/01/20 14:27:24;;;;;;;1.65;0.30;;;;;;;;;;4853194;29;20494;-77
2024/01/20 14:29:54;;;;;;;0.57;0.30;;;;;;;;;;4852858;29;20061;-76
2024/01/20 14:32:25;;;;;;;0.20;0.20;;;;;;;;;;4853012;29;20053;-78
2024/01/20 14:34:56;;;;;;;0.60;0.50;;;;;;;;;;4853622;29;20390;-78
2024/01/20 14:37:27;;;;;;;0.50;0.20;;;;;;;;;;4853774;29;20066;-79
2024/01/20 14:39:57;;;;;;;0.10;0.10;;;;;;;;;;4837556;29;20053;-78
2024/01/20 14:42:28;;;;;;;0.43;0.22;;;;;;;;;;4863824;29;20061;-77
2024/01/20 14:44:58;;;;;;;0.90;0.17;;;;;;;;;;4866477;29;20053;-77
2024/01/20 14:47:30;;;;;;;0.13;0.13;;;;;;;;;;4867166;29;20053;-77
2024/01/20 14:50:04;;;;;;;4.57;0.32;;;;;;;;;;4862039;29;20049;-79
2024/01/20 14:52:35;;;;;;;0.13;0.03;;;;;;;;;;4866656;29;20057;-78
2024/01/20 14:55:06;;;;;;;0.45;0.20;;;;;;;;;;4860974;29;20412;-77
2024/01/20 14:57:37;;;;;;;0.20;0.20;;;;;;;;;;4858012;29;20045;-77
2024/01/20 15:00:08;;;;;;;0.20;0.15;;;;;;;;;;4855935;29;20057;-79
2024/01/20 15:02:39;;;;;;;1.75;0.10;;;;;;;;;;4854688;29;20062;-79
2024/01/20 15:05:09;;;;;;;0.28;0.20;;;;;;;;;;4856559;29;20045;-80
2024/01/20 15:07:41;;;;;;;0.38;0.20;;;;;;;;;;4842161;29;20049;-78
2024/01/20 15:10:13;;;;;;;0.20;0.20;;;;;;;;;;4818598;29;20061;-81